Time;durP1;ratioP1;P1;durP2;ratioP2;P2;SDS_P1;SDS_P2;PMS_P1;PMS_P2;Temp;Humidity;BMP_temperature;BMP_pressure;BME280_temperature;BME280_humidity;BME280_pressure;Samples;Min_cycle;Max_cycle;Signal;HPM_P1;HPM_P2
2021/10/20 00:01:38;;;;;;;3.38;2.58;;;16.00;87.00;;;;;;5073853;28;20377;-78
2021/10/20 00:04:05;;;;;;;3.50;2.90;;;15.90;86.80;;;;;;5073554;28;20041;-78
2021/10/20 00:06:31;;;;;;;5.00;2.85;;;15.90;86.70;;;;;;5073689;28;20170;-78
2021/10/20 00:08:57;;;;;;;2.72;2.47;;;15.90;86.60;;;;;;5073632;28;20514;-78
2021/10/20 00:11:22;;;;;;;3.28;2.88;;;15.90;86.60;;;;;;5073692;28;20395;-78
2021/10/20 00:13:49;;;;;;;3.35;2.97;;;15.90;86.40;;;;;;5073791;28;20079;-78
2021/10/20 00:16:16;;;;;;;2.60;2.33;;;15.90;86.30;;;;;;5073513;28;20032;-77
2021/10/20 00:18:47;;;;;;;3.17;2.60;;;15.90;86.30;;;;;;5073465;28;20028;-78
2021/10/20 00:21:15;;;;;;;3.15;2.72;;;15.90;86.30;;;;;;5073352;28;20025;-78
2021/10/20 00:23:40;;;;;;;3.13;2.83;;;15.90;86.20;;;;;;5073505;28;20066;-78
2021/10/20 00:26:06;;;;;;;3.35;2.40;;;15.90;86.20;;;;;;5075153;28;20040;-78
2021/10/20 00:28:31;;;;;;;3.35;3.05;;;15.90;86.10;;;;;;5090973;28;20034;-78
2021/10/20 00:30:57;;;;;;;4.75;2.50;;;15.80;86.10;;;;;;5091121;28;20483;-78
2021/10/20 00:33:23;;;;;;;3.08;2.70;;;15.80;86.10;;;;;;5090943;28;20020;-78
2021/10/20 00:35:48;;;;;;;3.42;2.50;;;15.80;86.00;;;;;;5075279;28;20028;-78
2021/10/20 00:38:14;;;;;;;3.10;2.80;;;15.80;86.00;;;;;;5090916;28;20032;-78
2021/10/20 00:40:39;;;;;;;2.65;2.45;;;15.80;86.00;;;;;;5090798;28;20048;-77
2021/10/20 00:43:05;;;;;;;3.53;2.60;;;15.80;85.90;;;;;;5090824;28;20031;-78
2021/10/20 00:45:31;;;;;;;3.70;2.42;;;15.80;85.90;;;;;;5075017;28;20094;-78
2021/10/20 00:47:57;;;;;;;2.88;2.53;;;15.80;85.80;;;;;;5072638;28;20028;-78
2021/10/20 00:50:23;;;;;;;3.03;2.63;;;15.80;85.70;;;;;;5090690;28;20119;-78
2021/10/20 00:52:48;;;;;;;2.92;2.42;;;15.80;85.70;;;;;;5075038;28;20020;-79
2021/10/20 00:55:14;;;;;;;4.35;2.40;;;15.80;85.60;;;;;;5090554;28;20017;-79
2021/10/20 00:57:43;;;;;;;3.55;2.40;;;15.80;85.50;;;;;;5090571;28;20494;-79
2021/10/20 01:00:10;;;;;;;2.92;2.65;;;15.80;85.40;;;;;;5090490;28;20024;-79
2021/10/20 01:02:37;;;;;;;4.50;2.97;;;15.80;85.40;;;;;;5090492;28;20477;-79
2021/10/20 01:05:05;;;;;;;3.60;2.65;;;15.80;85.30;;;;;;5090425;28;20012;-78
2021/10/20 01:07:30;;;;;;;2.83;2.33;;;15.80;85.30;;;;;;5090298;28;20028;-79
2021/10/20 01:09:56;;;;;;;5.07;2.40;;;15.80;85.20;;;;;;5090286;28;20032;-79
2021/10/20 01:12:22;;;;;;;2.65;2.40;;;15.80;85.10;;;;;;5090263;28;20123;-79
2021/10/20 01:14:48;;;;;;;2.53;2.33;;;15.80;85.10;;;;;;5090203;28;20028;-79
2021/10/20 01:17:14;;;;;;;4.25;2.60;;;15.80;84.80;;;;;;5090148;28;20023;-79
2021/10/20 01:19:43;;;;;;;3.22;2.55;;;15.90;84.80;;;;;;5074459;28;20040;-79
2021/10/20 01:22:09;;;;;;;3.00;2.53;;;15.80;84.60;;;;;;5074394;28;20048;-79
2021/10/20 01:24:35;;;;;;;3.53;2.60;;;15.90;84.50;;;;;;5090098;28;20443;-79
2021/10/20 01:27:01;;;;;;;3.35;2.80;;;15.90;84.30;;;;;;5092689;28;20066;-79
2021/10/20 01:32:49;;;;;;;4.18;2.30;;;15.90;84.10;;;;;;5074577;28;20032;-79
2021/10/20 01:35:14;;;;;;;2.83;2.45;;;15.90;84.10;;;;;;5089699;28;20017;-79
2021/10/20 01:37:40;;;;;;;4.25;2.40;;;15.90;83.90;;;;;;5089717;28;20115;-79
2021/10/20 01:40:08;;;;;;;2.97;2.60;;;16.00;83.80;;;;;;5089685;28;20037;-79
2021/10/20 01:42:34;;;;;;;3.60;2.70;;;16.00;83.60;;;;;;5089637;28;20048;-79
2021/10/20 01:45:00;;;;;;;3.00;2.70;;;16.10;83.50;;;;;;5089448;28;20027;-79
2021/10/20 01:47:25;;;;;;;3.90;2.50;;;16.10;83.40;;;;;;5089581;28;20115;-79
2021/10/20 01:49:51;;;;;;;3.88;2.60;;;16.10;83.30;;;;;;5089489;28;20032;-79
2021/10/20 01:52:16;;;;;;;3.75;2.60;;;16.10;83.30;;;;;;5089538;28;20572;-79
2021/10/20 01:54:42;;;;;;;4.03;2.75;;;16.10;83.10;;;;;;5089306;28;20017;-79
2021/10/20 01:57:08;;;;;;;4.53;2.45;;;16.10;83.00;;;;;;5089396;28;20107;-79
2021/10/20 01:59:33;;;;;;;3.92;2.63;;;16.10;82.90;;;;;;5088950;28;20020;-79
2021/10/20 02:01:59;;;;;;;2.75;2.42;;;16.10;82.80;;;;;;5073696;28;20037;-79
2021/10/20 02:04:25;;;;;;;2.90;2.47;;;16.10;82.70;;;;;;5089235;28;20078;-78
2021/10/20 02:06:50;;;;;;;2.58;2.25;;;16.10;82.70;;;;;;5073661;28;20434;-79
2021/10/20 02:09:16;;;;;;;2.92;2.33;;;16.10;82.70;;;;;;5091666;28;20039;-79
2021/10/20 02:11:42;;;;;;;4.57;2.38;;;16.10;82.60;;;;;;5089165;28;20031;-79
2021/10/20 02:14:55;;;;;;;2.90;2.33;;;16.20;82.60;;;;;;5089340;28;20115;-79
2021/10/20 02:17:20;;;;;;;4.40;2.70;;;16.20;82.50;;;;;;5088871;28;20028;-79
2021/10/20 02:19:46;;;;;;;3.90;2.50;;;16.10;82.40;;;;;;5088976;28;20089;-79
2021/10/20 02:22:12;;;;;;;4.03;2.42;;;16.20;82.50;;;;;;5088908;28;20013;-79
2021/10/20 02:24:37;;;;;;;5.22;2.55;;;16.20;82.40;;;;;;5088989;28;20017;-79
2021/10/20 02:27:03;;;;;;;4.03;2.60;;;16.20;82.40;;;;;;5088891;28;20025;-79
2021/10/20 02:29:31;;;;;;;2.85;2.53;;;16.20;82.40;;;;;;5088853;28;20048;-79
2021/10/20 02:31:57;;;;;;;3.92;2.50;;;16.20;82.40;;;;;;5088811;28;20387;-79
2021/10/20 02:34:22;;;;;;;4.80;2.35;;;16.20;82.30;;;;;;5088777;28;20020;-79
2021/10/20 02:36:48;;;;;;;2.83;2.47;;;16.10;82.10;;;;;;5074652;28;20511;-79
2021/10/20 02:39:14;;;;;;;3.08;2.40;;;16.20;82.80;;;;;;5088474;28;20040;-79
2021/10/20 02:41:40;;;;;;;3.45;2.15;;;16.20;82.10;;;;;;5088625;28;20021;-79
2021/10/20 02:44:06;;;;;;;2.95;2.35;;;16.20;82.10;;;;;;5088621;28;20043;-79
2021/10/20 02:46:33;;;;;;;3.30;2.50;;;16.10;82.00;;;;;;5088464;28;20019;-79
2021/10/20 02:48:59;;;;;;;3.65;2.42;;;16.20;82.10;;;;;;5088372;28;20028;-79
2021/10/20 02:51:24;;;;;;;3.45;2.42;;;16.10;82.00;;;;;;5088428;28;20097;-79
2021/10/20 02:53:51;;;;;;;2.65;2.40;;;16.10;82.00;;;;;;5088436;28;20119;-79
2021/10/20 02:56:17;;;;;;;3.38;2.53;;;16.10;82.00;;;;;;5088777;28;20078;-79
2021/10/20 02:58:44;;;;;;;3.85;2.60;;;16.10;82.00;;;;;;5088547;28;20067;-79
2021/10/20 03:01:10;;;;;;;3.45;2.70;;;16.10;82.00;;;;;;5088423;28;20013;-79
2021/10/20 03:03:36;;;;;;;2.88;2.42;;;16.00;82.00;;;;;;5088544;28;20071;-80
2021/10/20 03:06:03;;;;;;;5.55;2.70;;;16.10;82.00;;;;;;5088450;28;20415;-79
2021/10/20 03:08:28;;;;;;;3.53;2.20;;;16.10;82.10;;;;;;5072877;28;20103;-79
2021/10/20 03:10:54;;;;;;;2.90;2.53;;;16.00;82.00;;;;;;5090913;28;20056;-79
2021/10/20 03:13:19;;;;;;;3.08;2.40;;;16.00;82.10;;;;;;5092444;28;20031;-79
2021/10/20 03:15:45;;;;;;;4.25;2.58;;;16.00;82.10;;;;;;5092569;28;20016;-79
2021/10/20 03:18:11;;;;;;;4.40;2.53;;;16.00;82.10;;;;;;5076870;28;20035;-79
2021/10/20 03:20:36;;;;;;;2.72;2.50;;;16.00;82.00;;;;;;5076886;28;20032;-80
2021/10/20 03:23:02;;;;;;;2.97;2.58;;;16.00;82.00;;;;;;5092383;28;20031;-80
2021/10/20 03:25:28;;;;;;;5.28;2.67;;;16.00;82.00;;;;;;5092201;28;20021;-80
2021/10/20 03:27:54;;;;;;;6.18;2.88;;;16.00;81.90;;;;;;5076555;28;20025;-80
2021/10/20 03:30:22;;;;;;;3.05;2.70;;;16.00;81.90;;;;;;5076547;28;20066;-79
2021/10/20 03:32:48;;;;;;;3.42;2.80;;;16.00;81.90;;;;;;5092263;28;20024;-79
2021/10/20 03:35:14;;;;;;;2.95;2.60;;;16.00;81.90;;;;;;5092119;28;20021;-79
2021/10/20 03:37:40;;;;;;;3.60;2.95;;;16.00;81.90;;;;;;5092130;28;20391;-79
2021/10/20 03:40:07;;;;;;;2.92;2.63;;;16.00;81.80;;;;;;5091870;28;20044;-79
2021/10/20 03:42:33;;;;;;;3.50;3.03;;;16.00;81.80;;;;;;5092196;28;20027;-79
2021/10/20 03:44:59;;;;;;;3.95;3.08;;;16.00;81.80;;;;;;5091841;28;20023;-78
2021/10/20 03:47:25;;;;;;;3.83;3.10;;;16.00;81.80;;;;;;5092023;28;20388;-79
2021/10/20 03:49:51;;;;;;;4.43;3.25;;;16.00;81.70;;;;;;5076092;28;20056;-78
2021/10/20 03:52:17;;;;;;;4.22;3.20;;;16.00;81.70;;;;;;5076209;28;20118;-78
2021/10/20 03:54:43;;;;;;;3.55;3.00;;;16.00;81.60;;;;;;5108768;28;20025;-78
2021/10/20 03:57:09;;;;;;;4.57;3.35;;;16.00;81.60;;;;;;5091704;28;20027;-79
2021/10/20 03:59:35;;;;;;;6.10;3.20;;;16.00;81.50;;;;;;5091660;28;20028;-79
2021/10/20 04:02:00;;;;;;;3.83;3.13;;;16.10;81.60;;;;;;5076158;28;20040;-79
2021/10/20 04:04:26;;;;;;;5.15;2.92;;;16.10;81.60;;;;;;5091568;28;20028;-79
2021/10/20 04:06:51;;;;;;;3.60;3.15;;;16.00;81.60;;;;;;5091437;28;20074;-78
2021/10/20 04:09:17;;;;;;;3.72;3.08;;;16.10;81.60;;;;;;5091344;28;20017;-78
2021/10/20 04:11:43;;;;;;;4.03;3.08;;;16.10;81.60;;;;;;5108457;28;20052;-79
2021/10/20 04:14:09;;;;;;;4.80;3.10;;;16.10;81.60;;;;;;5075863;28;20388;-79
2021/10/20 04:16:35;;;;;;;3.00;2.70;;;16.00;81.50;;;;;;5091389;28;20028;-78
2021/10/20 04:19:00;;;;;;;3.28;2.97;;;16.10;81.60;;;;;;5091574;28;20050;-78
2021/10/20 04:21:26;;;;;;;4.38;3.80;;;16.10;81.50;;;;;;5075571;28;20020;-78
2021/10/20 04:23:52;;;;;;;3.35;2.80;;;16.00;81.50;;;;;;5091182;28;20073;-78
2021/10/20 04:26:17;;;;;;;5.47;3.20;;;16.10;81.50;;;;;;5091163;28;20074;-78
2021/10/20 04:28:43;;;;;;;3.65;3.15;;;16.00;81.50;;;;;;5091094;28;20025;-78
2021/10/20 04:31:09;;;;;;;3.30;3.00;;;16.10;81.60;;;;;;5091116;28;20177;-79
2021/10/20 04:33:34;;;;;;;4.40;2.90;;;16.00;81.50;;;;;;5091002;28;20043;-79
2021/10/20 04:36:00;;;;;;;3.08;2.60;;;16.10;81.70;;;;;;5090919;28;20040;-79
2021/10/20 04:38:25;;;;;;;5.53;2.72;;;16.00;81.60;;;;;;5090862;28;20024;-78
2021/10/20 04:40:51;;;;;;;2.75;2.53;;;16.10;81.70;;;;;;5091077;28;20061;-78
2021/10/20 04:43:17;;;;;;;3.90;3.50;;;16.10;81.70;;;;;;5090799;28;20028;-79
2021/10/20 04:45:42;;;;;;;3.63;3.10;;;16.00;81.60;;;;;;5075517;28;20029;-78
2021/10/20 04:48:08;;;;;;;3.88;3.47;;;16.10;81.60;;;;;;5090669;28;20028;-78
2021/10/20 04:50:33;;;;;;;3.30;3.00;;;16.10;81.50;;;;;;5075289;28;20021;-78
2021/10/20 04:52:59;;;;;;;3.85;2.97;;;16.10;81.50;;;;;;5090592;28;20027;-79
2021/10/20 04:55:24;;;;;;;3.25;2.72;;;16.20;81.50;;;;;;5090721;28;20078;-79
2021/10/20 04:57:52;;;;;;;3.58;2.72;;;16.20;82.10;;;;;;5090738;28;20079;-79
2021/10/20 05:00:21;;;;;;;3.35;3.00;;;16.30;81.50;;;;;;5075108;28;20020;-79
2021/10/20 05:02:47;;;;;;;4.00;3.30;;;16.30;81.30;;;;;;5090513;28;20028;-79
2021/10/20 05:05:13;;;;;;;3.20;2.90;;;16.20;81.20;;;;;;5090752;28;20023;-79
2021/10/20 05:07:53;;;;;;;5.32;3.50;;;16.30;81.30;;;;;;5090522;28;20380;-79
2021/10/20 05:10:23;;;;;;;4.88;3.20;;;16.30;81.20;;;;;;5090383;28;20016;-79
2021/10/20 05:12:49;;;;;;;4.60;3.53;;;16.30;81.20;;;;;;5090365;28;20470;-79
2021/10/20 05:15:16;;;;;;;3.88;3.30;;;16.30;81.10;;;;;;5090213;28;20016;-79
2021/10/20 05:17:43;;;;;;;3.83;3.20;;;16.30;81.10;;;;;;5074739;28;20021;-79
2021/10/20 05:20:12;;;;;;;3.50;3.20;;;16.30;81.10;;;;;;5074564;28;20032;-79
2021/10/20 05:22:38;;;;;;;4.63;3.58;;;16.30;81.20;;;;;;5074648;28;20029;-79
2021/10/20 05:25:06;;;;;;;4.95;3.30;;;16.30;81.10;;;;;;5074657;28;20086;-80
2021/10/20 05:27:32;;;;;;;3.80;3.25;;;16.20;81.10;;;;;;5090088;28;20025;-79
2021/10/20 05:29:57;;;;;;;3.50;3.20;;;16.30;81.10;;;;;;5074294;28;20036;-79
2021/10/20 05:32:24;;;;;;;4.20;3.28;;;16.30;81.10;;;;;;5089425;28;20070;-79
2021/10/20 05:38:12;;;;;;;4.20;3.40;;;16.30;81.10;;;;;;5074775;28;20020;-80
2021/10/20 05:40:38;;;;;;;6.10;3.63;;;16.20;81.10;;;;;;5089928;28;20044;-80
2021/10/20 05:43:03;;;;;;;3.95;3.53;;;16.20;81.10;;;;;;5089969;28;20423;-80
2021/10/20 05:45:29;;;;;;;4.28;3.58;;;16.20;81.10;;;;;;5074242;28;20392;-79
2021/10/20 05:47:54;;;;;;;4.10;3.55;;;16.20;81.10;;;;;;5089927;28;20033;-79
2021/10/20 05:50:20;;;;;;;3.63;3.28;;;16.20;81.10;;;;;;5089804;28;20020;-80
2021/10/20 05:52:46;;;;;;;4.63;3.80;;;16.20;81.10;;;;;;5090214;28;20531;-80
2021/10/20 05:55:12;;;;;;;3.65;3.28;;;16.20;81.10;;;;;;5090440;28;20107;-80
2021/10/20 05:57:39;;;;;;;5.07;3.40;;;16.20;81.10;;;;;;5090596;28;20402;-79
2021/10/20 06:00:12;;;;;;;6.53;3.47;;;16.20;81.10;;;;;;5090881;28;20017;-80
2021/10/20 06:02:39;;;;;;;4.00;3.50;;;16.10;81.00;;;;;;5090708;28;20024;-79
2021/10/20 06:05:06;;;;;;;4.90;3.70;;;16.20;81.10;;;;;;5090620;28;20020;-79
2021/10/20 06:07:31;;;;;;;3.85;3.53;;;16.20;81.00;;;;;;5090812;28;20373;-79
2021/10/20 06:09:57;;;;;;;3.92;3.30;;;16.20;80.90;;;;;;5102504;28;20106;-81
2021/10/20 06:12:23;;;;;;;4.30;3.28;;;16.20;80.90;;;;;;5107095;28;20035;-80
2021/10/20 06:14:50;;;;;;;3.30;3.00;;;16.30;80.90;;;;;;5107156;28;20055;-80
2021/10/20 06:20:38;;;;;;;5.35;3.50;;;16.30;80.60;;;;;;5092473;28;20039;-79
2021/10/20 06:23:04;;;;;;;3.88;3.47;;;16.30;80.50;;;;;;5093719;28;20020;-79
2021/10/20 06:25:29;;;;;;;5.18;3.28;;;16.40;80.60;;;;;;5109272;28;20020;-80
2021/10/20 06:27:55;;;;;;;4.28;3.22;;;16.30;80.50;;;;;;5088826;28;20020;-80
2021/10/20 06:30:21;;;;;;;4.20;3.30;;;16.40;80.50;;;;;;5073374;28;20025;-80
2021/10/20 06:32:46;;;;;;;3.90;3.50;;;16.40;80.40;;;;;;5088687;28;20017;-80
2021/10/20 06:35:12;;;;;;;4.05;3.05;;;16.40;80.40;;;;;;5073216;28;20023;-80
2021/10/20 06:37:39;;;;;;;3.60;3.30;;;16.40;80.30;;;;;;5088824;28;20021;-80
2021/10/20 06:43:26;;;;;;;4.15;3.20;;;16.40;80.30;;;;;;5073490;28;20394;-80
2021/10/20 06:45:52;;;;;;;4.93;3.10;;;16.40;80.30;;;;;;5088620;28;20009;-80
2021/10/20 06:48:18;;;;;;;5.30;3.10;;;16.40;80.30;;;;;;5088718;28;20025;-80
2021/10/20 06:50:43;;;;;;;4.63;3.17;;;16.50;80.30;;;;;;5088444;28;20469;-79
2021/10/20 06:53:09;;;;;;;3.63;3.22;;;16.50;80.20;;;;;;5073122;28;20456;-79
2021/10/20 06:55:34;;;;;;;3.50;3.10;;;16.40;80.20;;;;;;5088698;28;20517;-80
2021/10/20 06:58:00;;;;;;;5.03;3.28;;;16.50;80.30;;;;;;5073027;28;20113;-80
2021/10/20 07:00:27;;;;;;;4.82;3.53;;;16.50;80.20;;;;;;5091290;28;20488;-80
2021/10/20 07:02:53;;;;;;;3.70;3.10;;;16.50;80.20;;;;;;5088470;28;20025;-80
2021/10/20 07:05:18;;;;;;;3.63;3.13;;;16.50;80.20;;;;;;5088402;28;20029;-80
2021/10/20 07:07:44;;;;;;;3.78;3.25;;;16.50;80.30;;;;;;5088211;28;20047;-78
2021/10/20 07:10:10;;;;;;;4.65;3.58;;;16.60;80.30;;;;;;5088413;28;20028;-79
2021/10/20 07:12:35;;;;;;;5.43;3.47;;;16.50;80.30;;;;;;5088191;28;20032;-79
2021/10/20 07:15:03;;;;;;;4.18;3.40;;;16.50;80.30;;;;;;5088340;28;20082;-79
2021/10/20 07:17:28;;;;;;;3.97;3.20;;;16.50;80.40;;;;;;5088297;28;20016;-79
2021/10/20 07:19:54;;;;;;;4.40;3.53;;;16.50;80.40;;;;;;5088249;28;20032;-78
2021/10/20 07:22:22;;;;;;;3.70;3.10;;;16.60;80.40;;;;;;5072856;28;20477;-79
2021/10/20 07:24:47;;;;;;;4.88;3.67;;;16.60;80.50;;;;;;5088539;28;20032;-79
2021/10/20 07:27:13;;;;;;;4.70;3.80;;;16.60;80.50;;;;;;5088068;28;20024;-79
2021/10/20 07:29:40;;;;;;;4.07;3.60;;;16.60;80.40;;;;;;5088140;28;20024;-78
2021/10/20 07:32:09;;;;;;;4.70;3.20;;;16.70;80.40;;;;;;5088328;28;20021;-80
2021/10/20 07:34:34;;;;;;;4.28;3.58;;;16.70;80.40;;;;;;5072553;28;20048;-79
2021/10/20 07:37:00;;;;;;;4.85;3.67;;;16.70;80.40;;;;;;5088877;28;20086;-79
2021/10/20 07:39:25;;;;;;;4.07;3.00;;;16.80;80.40;;;;;;5087961;28;20135;-79
2021/10/20 07:41:51;;;;;;;3.45;3.10;;;16.80;80.50;;;;;;5089681;28;20394;-83
2021/10/20 07:47:39;;;;;;;6.45;3.63;;;16.70;80.60;;;;;;5075877;28;20019;-82
2021/10/20 07:50:08;;;;;;;5.85;3.65;;;16.70;80.70;;;;;;5090257;28;20033;-82
2021/10/20 07:52:34;;;;;;;5.05;3.40;;;16.70;80.80;;;;;;5091531;28;20051;-84
2021/10/20 07:55:04;;;;;;;5.07;3.78;;;16.70;80.90;;;;;;5092378;28;20022;-83
2021/10/20 07:57:30;;;;;;;4.97;3.72;;;16.80;81.00;;;;;;5094831;28;20546;-83
2021/10/20 07:59:56;;;;;;;3.95;3.40;;;16.80;81.00;;;;;;5078378;28;20028;-83
2021/10/20 08:02:21;;;;;;;5.32;3.65;;;16.80;81.10;;;;;;5095460;28;20483;-83
2021/10/20 08:04:47;;;;;;;5.82;3.50;;;16.80;81.20;;;;;;5095689;28;20017;-82
2021/10/20 08:07:13;;;;;;;5.82;3.75;;;16.80;81.40;;;;;;5094865;28;20037;-82
2021/10/20 08:09:39;;;;;;;4.22;3.53;;;16.70;81.50;;;;;;5095227;28;20032;-82
2021/10/20 08:12:05;;;;;;;6.40;3.45;;;16.70;81.60;;;;;;5111415;28;20025;-82
2021/10/20 08:14:34;;;;;;;4.28;3.67;;;16.70;81.70;;;;;;5094968;28;20025;-82
2021/10/20 08:17:00;;;;;;;3.95;3.60;;;16.70;81.80;;;;;;5078876;28;20017;-81
2021/10/20 08:19:26;;;;;;;4.63;3.28;;;16.70;81.90;;;;;;5093821;28;20032;-81
2021/10/20 08:21:51;;;;;;;3.80;3.45;;;16.70;82.00;;;;;;5078307;28;20027;-81
2021/10/20 08:24:17;;;;;;;4.30;3.40;;;16.70;82.00;;;;;;5093588;28;20025;-81
2021/10/20 08:26:42;;;;;;;4.35;3.28;;;16.70;82.00;;;;;;5093857;28;20017;-81
2021/10/20 08:29:10;;;;;;;4.25;3.38;;;16.70;82.10;;;;;;5094220;28;20025;-80
2021/10/20 08:31:36;;;;;;;5.25;3.80;;;16.70;82.20;;;;;;5077958;28;20021;-80
2021/10/20 08:34:02;;;;;;;5.30;4.68;;;16.70;82.20;;;;;;5077621;28;20024;-81
2021/10/20 08:36:27;;;;;;;5.10;3.80;;;16.70;82.40;;;;;;5091887;28;20381;-82
2021/10/20 08:38:53;;;;;;;4.00;3.50;;;16.80;82.60;;;;;;5092117;28;20091;-81
2021/10/20 08:44:41;;;;;;;3.92;3.58;;;16.80;82.80;;;;;;5076269;28;20557;-81
2021/10/20 08:47:08;;;;;;;6.55;3.70;;;16.80;82.80;;;;;;5076305;28;20029;-80
2021/10/20 08:49:37;;;;;;;4.70;3.88;;;16.80;82.80;;;;;;5075911;28;20020;-81
2021/10/20 08:52:04;;;;;;;6.28;4.15;;;16.80;82.80;;;;;;5091536;28;20037;-81
2021/10/20 08:54:29;;;;;;;6.93;3.78;;;16.80;82.80;;;;;;5095491;28;20033;-82
2021/10/20 08:56:55;;;;;;;4.85;3.92;;;16.90;82.80;;;;;;5091840;28;20366;-81
2021/10/20 08:59:22;;;;;;;4.82;3.65;;;17.00;82.80;;;;;;5092507;28;20017;-82
2021/10/20 09:01:49;;;;;;;4.50;3.70;;;17.00;82.60;;;;;;5092363;28;20380;-83
2021/10/20 09:04:19;;;;;;;4.75;3.67;;;17.00;82.50;;;;;;5092155;28;20025;-83
2021/10/20 09:06:45;;;;;;;5.57;3.80;;;17.10;82.50;;;;;;5091886;28;20020;-82
2021/10/20 09:09:10;;;;;;;4.40;3.78;;;17.10;82.30;;;;;;5075893;28;20032;-83
2021/10/20 09:11:39;;;;;;;5.43;4.05;;;17.20;82.20;;;;;;5092056;28;20041;-82
2021/10/20 09:14:13;;;;;;;4.53;3.55;;;17.30;82.10;;;;;;5076910;28;20074;-83
2021/10/20 09:16:41;;;;;;;4.82;3.72;;;17.40;81.90;;;;;;5092302;28;20495;-82
2021/10/20 09:19:16;;;;;;;5.68;3.88;;;17.40;81.90;;;;;;5092187;28;20025;-83
2021/10/20 09:21:56;;;;;;;4.53;3.95;;;17.40;81.80;;;;;;5092096;28;20032;-82
2021/10/20 09:24:33;;;;;;;5.45;4.32;;;17.40;81.90;;;;;;5092159;28;20472;-83
2021/10/20 09:26:59;;;;;;;4.22;3.83;;;17.30;81.80;;;;;;5092026;28;20029;-84
2021/10/20 09:32:50;;;;;;;4.90;3.83;;;17.30;81.90;;;;;;5075865;28;20395;-83
2021/10/20 09:35:16;;;;;;;4.20;3.80;;;17.30;81.90;;;;;;5091241;28;20017;-82
2021/10/20 09:37:44;;;;;;;4.53;3.80;;;17.30;81.90;;;;;;5091110;28;20071;-83
2021/10/20 09:40:12;;;;;;;5.35;3.80;;;17.40;81.80;;;;;;5094204;28;20052;-84
2021/10/20 09:42:53;;;;;;;4.20;3.70;;;17.40;81.80;;;;;;5091390;28;20115;-81
2021/10/20 09:45:21;;;;;;;5.80;3.83;;;17.40;81.80;;;;;;5091386;28;20028;-82
2021/10/20 09:47:48;;;;;;;4.85;4.35;;;17.50;81.80;;;;;;5091380;28;20032;-81
2021/10/20 09:50:15;;;;;;;4.53;3.80;;;17.50;81.70;;;;;;5090989;28;20107;-82
2021/10/20 09:52:50;;;;;;;5.07;4.28;;;17.50;81.70;;;;;;5091227;28;20046;-83
2021/10/20 09:55:36;;;;;;;6.28;4.53;;;17.50;81.60;;;;;;5091068;28;20032;-82
2021/10/20 09:58:09;;;;;;;4.85;4.30;;;17.50;81.60;;;;;;5091060;28;20439;-83
2021/10/20 10:00:35;;;;;;;5.03;4.15;;;17.60;81.70;;;;;;5091323;28;20025;-83
2021/10/20 10:03:02;;;;;;;5.43;4.03;;;17.60;81.70;;;;;;5092526;28;20020;-82
2021/10/20 10:05:29;;;;;;;6.10;4.30;;;17.60;81.60;;;;;;5075541;28;20025;-84
2021/10/20 10:07:55;;;;;;;6.38;4.70;;;17.60;81.60;;;;;;5091451;28;20051;-83
2021/10/20 10:10:21;;;;;;;6.03;4.38;;;17.70;81.60;;;;;;5091769;28;20049;-82
2021/10/20 10:12:47;;;;;;;5.63;4.47;;;17.80;81.60;;;;;;5091613;28;20094;-83
2021/10/20 10:15:17;;;;;;;5.38;4.13;;;17.90;81.40;;;;;;5091621;28;20031;-82
2021/10/20 10:17:43;;;;;;;5.32;4.35;;;18.00;81.30;;;;;;5090630;28;20507;-82
2021/10/20 10:20:11;;;;;;;4.93;4.20;;;18.10;81.00;;;;;;5090356;28;20388;-83
2021/10/20 10:22:51;;;;;;;6.75;4.50;;;18.10;81.00;;;;;;5091420;28;20082;-83
2021/10/20 10:25:41;;;;;;;4.38;3.95;;;18.20;80.80;;;;;;5091072;28;20037;-82
2021/10/20 10:28:23;;;;;;;5.90;4.20;;;18.10;80.80;;;;;;5074224;28;20036;-86
2021/10/20 10:30:51;;;;;;;4.60;4.00;;;18.10;80.80;;;;;;5092701;28;20116;-82
2021/10/20 10:33:53;;;;;;;6.30;4.30;;;18.00;80.90;;;;;;5092285;28;20024;-85
2021/10/20 10:36:22;;;;;;;6.97;4.00;;;17.90;81.00;;;;;;5088678;28;20507;-83
2021/10/20 10:38:58;;;;;;;4.45;3.97;;;17.90;81.20;;;;;;5090812;28;20047;-82
2021/10/20 10:41:27;;;;;;;4.35;3.70;;;17.80;81.30;;;;;;5107789;28;20032;-83
2021/10/20 10:44:15;;;;;;;5.78;4.22;;;17.80;81.40;;;;;;5108799;28;20033;-82
2021/10/20 10:46:54;;;;;;;4.30;3.80;;;17.80;81.40;;;;;;5107731;28;20040;-83
2021/10/20 10:49:30;;;;;;;4.82;4.13;;;17.80;81.50;;;;;;5075954;28;20115;-83
2021/10/20 10:52:35;;;;;;;5.18;4.03;;;17.80;81.50;;;;;;5076424;28;20029;-82
2021/10/20 10:55:10;;;;;;;4.53;4.10;;;17.80;81.40;;;;;;5102534;28;20070;-83
2021/10/20 10:57:56;;;;;;;3.97;3.60;;;17.80;81.40;;;;;;5107150;28;20511;-81
2021/10/20 11:00:21;;;;;;;5.93;4.05;;;17.90;81.40;;;;;;5066167;28;20079;-81
2021/10/20 11:02:51;;;;;;;4.30;3.25;;;17.80;81.30;;;;;;5106220;28;20041;-82
2021/10/20 11:05:20;;;;;;;4.55;3.83;;;17.80;81.30;;;;;;5107482;28;20058;-83
2021/10/20 11:07:47;;;;;;;4.47;3.78;;;17.80;81.30;;;;;;5106484;28;20021;-83
2021/10/20 11:10:15;;;;;;;5.15;3.85;;;17.80;81.30;;;;;;5106788;28;20040;-84
2021/10/20 11:12:45;;;;;;;4.60;3.70;;;17.80;81.30;;;;;;5073810;28;20032;-81
2021/10/20 11:15:11;;;;;;;4.35;3.95;;;17.80;81.20;;;;;;5073300;28;20056;-82
2021/10/20 11:17:37;;;;;;;4.38;3.83;;;17.80;81.20;;;;;;5106189;28;20059;-82
2021/10/20 11:20:06;;;;;;;4.30;3.65;;;17.80;81.20;;;;;;5073535;28;20060;-81
2021/10/20 11:22:33;;;;;;;4.28;3.33;;;17.90;81.20;;;;;;5089902;28;20020;-83
2021/10/20 11:24:59;;;;;;;4.22;3.40;;;17.90;81.90;;;;;;5074626;28;20036;-85
2021/10/20 11:27:25;;;;;;;3.83;3.45;;;17.90;81.20;;;;;;5091887;28;20389;-83
2021/10/20 11:29:53;;;;;;;4.30;3.75;;;17.90;81.20;;;;;;5090385;28;20036;-83
2021/10/20 11:32:21;;;;;;;5.43;3.47;;;17.90;81.20;;;;;;5092672;28;20111;-84
2021/10/20 11:34:47;;;;;;;4.13;3.65;;;17.90;81.10;;;;;;5093573;28;20470;-82
2021/10/20 11:37:15;;;;;;;4.72;3.60;;;17.90;81.00;;;;;;5110672;28;20023;-82
2021/10/20 11:39:42;;;;;;;3.88;3.25;;;17.90;81.00;;;;;;5110849;28;20084;-83
2021/10/20 11:42:12;;;;;;;3.65;3.35;;;17.90;81.00;;;;;;5078434;28;20115;-83
2021/10/20 11:44:40;;;;;;;4.30;3.10;;;17.90;80.90;;;;;;5094023;28;20032;-82
2021/10/20 11:47:09;;;;;;;5.57;3.60;;;18.00;80.90;;;;;;5076753;28;20066;-82
2021/10/20 11:49:41;;;;;;;5.15;3.78;;;18.00;80.80;;;;;;5094263;28;20028;-81
2021/10/20 11:52:10;;;;;;;3.90;3.50;;;18.10;80.80;;;;;;5110824;28;20032;-82
2021/10/20 11:54:38;;;;;;;3.95;3.50;;;18.00;80.70;;;;;;5110971;28;20029;-82
2021/10/20 11:57:07;;;;;;;3.75;3.35;;;18.10;80.70;;;;;;5110898;28;20032;-82
2021/10/20 11:59:33;;;;;;;5.72;4.00;;;18.10;80.70;;;;;;5093644;28;20028;-82
2021/10/20 12:02:00;;;;;;;5.60;3.63;;;18.10;80.60;;;;;;5093996;28;20430;-82
2021/10/20 12:04:27;;;;;;;4.22;3.80;;;18.00;80.50;;;;;;5079235;28;20024;-82
2021/10/20 12:06:57;;;;;;;4.22;3.50;;;18.00;80.50;;;;;;5111278;28;20020;-83
2021/10/20 12:09:23;;;;;;;4.57;3.80;;;18.00;80.60;;;;;;5094094;28;20496;-82
2021/10/20 12:11:50;;;;;;;4.00;3.30;;;18.00;80.70;;;;;;5111251;28;20016;-82
2021/10/20 12:14:19;;;;;;;3.95;3.50;;;18.00;80.80;;;;;;5078096;28;20028;-82
2021/10/20 12:16:47;;;;;;;5.05;3.38;;;18.00;81.00;;;;;;5110738;28;20120;-83
2021/10/20 12:19:14;;;;;;;4.03;3.63;;;18.00;80.80;;;;;;5110835;28;20044;-83
2021/10/20 12:21:41;;;;;;;3.47;3.17;;;18.00;80.80;;;;;;5110705;28;20128;-82
2021/10/20 12:24:09;;;;;;;4.10;3.70;;;18.00;80.80;;;;;;5078974;28;20071;-83
2021/10/20 12:26:38;;;;;;;5.95;3.80;;;18.00;80.80;;;;;;5093330;28;20384;-83
2021/10/20 12:29:06;;;;;;;4.93;3.40;;;18.00;80.80;;;;;;5077787;28;20032;-82
2021/10/20 12:31:33;;;;;;;3.75;3.45;;;18.00;81.00;;;;;;5093420;28;20113;-83
2021/10/20 12:33:59;;;;;;;6.40;3.90;;;18.00;81.20;;;;;;5077165;28;20499;-83
2021/10/20 12:36:27;;;;;;;4.97;3.67;;;18.00;81.40;;;;;;5109944;28;20024;-82
2021/10/20 12:38:54;;;;;;;4.32;3.50;;;18.00;81.40;;;;;;5109205;28;20063;-81
2021/10/20 12:41:23;;;;;;;4.13;3.72;;;18.00;81.40;;;;;;5109799;28;20036;-82
2021/10/20 12:43:51;;;;;;;4.22;3.83;;;18.10;81.50;;;;;;5109885;28;20028;-82
2021/10/20 12:46:18;;;;;;;4.40;4.00;;;18.10;81.40;;;;;;5082375;28;20044;-82
2021/10/20 12:48:45;;;;;;;5.75;3.50;;;18.10;81.40;;;;;;5110254;28;20072;-83
2021/10/20 12:51:12;;;;;;;4.03;3.60;;;18.00;81.40;;;;;;5075942;28;20546;-81
2021/10/20 12:53:43;;;;;;;5.28;4.05;;;18.10;81.50;;;;;;5093046;28;20385;-83
2021/10/20 12:56:10;;;;;;;4.80;3.53;;;18.10;81.40;;;;;;5109431;28;20037;-84
2021/10/20 12:58:36;;;;;;;4.40;3.60;;;18.10;81.40;;;;;;5077837;28;20029;-82
2021/10/20 13:04:25;;;;;;;4.45;3.47;;;18.10;81.30;;;;;;5077427;28;20023;-83
2021/10/20 13:06:51;;;;;;;4.28;3.60;;;18.00;81.30;;;;;;5093100;28;20028;-83
2021/10/20 13:09:17;;;;;;;4.18;3.72;;;18.10;81.30;;;;;;5109517;28;20032;-83
2021/10/20 13:11:43;;;;;;;4.45;3.40;;;18.10;81.20;;;;;;5108831;28;20020;-82
2021/10/20 13:14:09;;;;;;;3.85;3.45;;;18.10;81.20;;;;;;5091805;28;20024;-83
2021/10/20 13:16:35;;;;;;;5.03;3.75;;;18.10;81.20;;;;;;5108935;28;20025;-83